Woodridge, Canada
Current Conditions -  °F | °C
As of 9:34 PM on Friday 24 Oct 2014 (Local Time) from KROX Reporting Station
Clear Clear  
Wind Chill: 55°   Ceiling: Unl
Heat Index: 55°   Visibility: 10mi
Dew Point: 37°   Wind: 10mph
Humidity: 51%   Direction: 260°W
Pressure: 29.77"   Gusts: NA
Location:  49.28°N, 96.15°W
Report Text: KROX 250234Z AUTO 26009KT 10SM CLR 13/03 A2977 RMK AO2
Loading
Personal Weather Stations






























Interactive Weather Map
Tropical Storm Tracking
New forecast layout! Learn more

10-Day Weather Forecast

Advertisements
Track Severe Weather on mobile